Time;durP1;ratioP1;P1;durP2;ratioP2;P2;SDS_P1;SDS_P2;PMS_P1;PMS_P2;Temp;Humidity;BMP_temperature;BMP_pressure;BME280_temperature;BME280_humidity;BME280_pressure;Samples;Min_cycle;Max_cycle;Signal;HPM_P1;HPM_P2
2021/12/12 00:01:52;;;;;;;32.15;11.00;;;;;;;2.76;100.00;101510.50;5049368;28;20060;-75
2021/12/12 00:04:31;;;;;;;33.55;11.50;;;;;;;2.95;100.00;101527.97;5030451;28;20028;-74
2021/12/12 00:06:58;;;;;;;36.53;12.20;;;;;;;2.72;100.00;101527.19;5030997;28;20386;-74
2021/12/12 00:09:32;;;;;;;29.50;11.57;;;;;;;2.76;100.00;101510.50;5013618;28;20040;-76
2021/12/12 00:12:02;;;;;;;33.65;11.48;;;;;;;2.88;100.00;101503.91;5031746;28;20033;-75
2021/12/12 00:14:31;;;;;;;33.05;11.45;;;;;;;2.77;100.00;101501.78;5031228;28;20108;-75
2021/12/12 00:17:01;;;;;;;31.80;11.57;;;;;;;2.91;100.00;101511.63;5030047;28;20044;-74
2021/12/12 00:19:28;;;;;;;34.90;11.77;;;;;;;3.01;100.00;101523.31;5013872;28;20103;-75
2021/12/12 00:21:58;;;;;;;37.97;11.50;;;;;;;2.92;100.00;101493.25;5048169;28;20029;-74
2021/12/12 00:24:27;;;;;;;33.95;11.98;;;;;;;2.97;100.00;101507.88;5030229;28;20155;-75
2021/12/12 00:26:55;;;;;;;31.48;12.35;;;;;;;3.14;100.00;101487.09;5031132;28;20052;-75
2021/12/12 00:29:23;;;;;;;36.28;11.63;;;;;;;2.80;100.00;101472.09;5033751;28;20033;-75
2021/12/12 00:31:53;;;;;;;31.40;11.98;;;;;;;2.96;100.00;101527.06;5052617;28;20025;-75
2021/12/12 00:34:19;;;;;;;31.70;13.00;;;;;;;2.97;100.00;101528.75;5051634;28;20025;-75
2021/12/12 00:36:45;;;;;;;26.98;12.35;;;;;;;2.76;100.00;101478.34;5033542;28;20052;-75
2021/12/12 00:39:18;;;;;;;35.45;13.27;;;;;;;3.07;100.00;101517.00;5017582;28;20057;-74
2021/12/12 00:41:55;;;;;;;37.15;12.35;;;;;;;2.75;100.00;101487.94;5018287;28;20033;-76
2021/12/12 00:44:25;;;;;;;31.40;12.10;;;;;;;2.63;100.00;101463.22;5033371;28;20021;-74
2021/12/12 00:46:57;;;;;;;29.27;12.07;;;;;;;2.51;100.00;101445.50;5032640;28;20019;-76
2021/12/12 00:49:26;;;;;;;32.63;11.73;;;;;;;2.70;100.00;101469.03;5051574;28;20063;-75
2021/12/12 00:51:53;;;;;;;34.97;11.40;;;;;;;2.92;100.00;101506.31;5051567;28;20462;-75
2021/12/12 00:54:19;;;;;;;31.80;11.57;;;;;;;2.94;100.00;101503.63;5051582;28;20028;-75
2021/12/12 00:56:46;;;;;;;35.38;12.15;;;;;;;2.59;100.00;101464.28;5016877;28;20078;-75
2021/12/12 00:59:13;;;;;;;29.27;11.60;;;;;;;2.71;100.00;101473.34;5050904;28;20105;-75
2021/12/12 01:01:45;;;;;;;32.50;12.45;;;;;;;2.90;100.00;101505.53;5033608;28;20093;-75
2021/12/12 01:04:26;;;;;;;29.63;11.65;;;;;;;3.09;100.00;101502.13;5051775;28;20086;-75
2021/12/12 01:06:58;;;;;;;30.17;12.30;;;;;;;2.88;100.00;101489.13;5033146;28;20029;-75
2021/12/12 01:09:32;;;;;;;33.83;12.15;;;;;;;3.03;100.00;101500.63;5052589;28;20025;-75
2021/12/12 01:12:02;;;;;;;31.85;11.82;;;;;;;2.96;100.00;101494.00;5021243;28;20044;-75
2021/12/12 01:14:34;;;;;;;31.02;12.20;;;;;;;2.74;100.00;101462.75;5035221;28;20403;-75
2021/12/12 01:17:05;;;;;;;36.35;11.95;;;;;;;2.70;100.00;101440.34;5050285;28;20025;-75
2021/12/12 01:19:40;;;;;;;35.20;12.80;;;;;;;3.03;100.00;101468.47;5032644;28;20053;-75
2021/12/12 01:22:10;;;;;;;31.85;12.00;;;;;;;2.95;100.00;101466.19;5050965;28;20033;-75
2021/12/12 01:24:40;;;;;;;30.25;12.02;;;;;;;3.18;100.00;101487.81;5032507;28;20025;-75
2021/12/12 01:27:07;;;;;;;30.20;11.73;;;;;;;3.16;100.00;101487.88;5033048;28;20029;-75
2021/12/12 01:29:33;;;;;;;31.20;12.18;;;;;;;2.83;100.00;101464.13;5033308;28;20063;-75
2021/12/12 01:32:02;;;;;;;31.73;12.77;;;;;;;2.83;100.00;101456.31;5033468;28;20053;-76
2021/12/12 01:34:30;;;;;;;35.45;13.10;;;;;;;3.07;100.00;101485.69;5032474;28;20025;-75
2021/12/12 01:39:41;;;;;;;35.97;12.98;;;;;;;2.92;100.00;101479.38;5031755;28;20028;-76
2021/12/12 01:42:21;;;;;;;35.38;13.07;;;;;;;3.10;100.00;101478.56;5050696;28;20028;-76
2021/12/12 01:44:50;;;;;;;32.45;12.90;;;;;;;3.03;100.00;101490.19;5032847;28;20029;-75
2021/12/12 01:47:27;;;;;;;35.85;12.98;;;;;;;2.97;100.00;101500.03;5016007;28;20028;-74
2021/12/12 01:49:57;;;;;;;33.50;13.27;;;;;;;3.00;100.00;101499.91;5032555;28;20115;-74
2021/12/12 01:52:29;;;;;;;40.90;14.10;;;;;;;2.68;100.00;101455.19;5051325;28;20025;-74
2021/12/12 01:55:06;;;;;;;37.00;15.13;;;;;;;2.91;100.00;101491.59;5051447;28;20075;-75
2021/12/12 01:57:36;;;;;;;37.88;14.10;;;;;;;2.74;100.00;101446.28;5032549;28;20025;-74
2021/12/12 02:00:12;;;;;;;37.63;14.88;;;;;;;3.03;100.00;101484.13;5015636;28;20624;-74
2021/12/12 02:02:38;;;;;;;31.42;14.10;;;;;;;3.26;100.00;101496.16;5050739;28;20078;-75
2021/12/12 02:05:14;;;;;;;30.63;13.73;;;;;;;3.06;100.00;101469.16;5051441;28;20497;-75
2021/12/12 02:07:45;;;;;;;36.90;15.07;;;;;;;2.96;100.00;101448.78;5015232;28;20068;-74
2021/12/12 02:10:17;;;;;;;32.67;14.75;;;;;;;3.01;100.00;101489.41;5434879;23;20128;-76
2021/12/12 02:12:44;;;;;;;32.67;14.10;;;;;;;2.74;100.00;101439.28;5002969;28;20121;-76
2021/12/12 02:15:11;;;;;;;31.95;14.20;;;;;;;2.76;100.00;101421.81;4997562;28;20065;-76
2021/12/12 02:17:43;;;;;;;31.33;13.93;;;;;;;2.95;100.00;101458.34;5013492;28;20025;-76
2021/12/12 02:20:34;;;;;;;30.17;14.77;;;;;;;3.03;100.00;101471.91;5033537;28;20049;-76
2021/12/12 02:23:23;;;;;;;32.17;13.90;;;;;;;2.97;100.00;101493.06;5031365;28;20029;-75
2021/12/12 02:37:00;;;;;;;22.80;12.98;;;;;;;3.17;100.00;101497.41;5020850;28;20037;-75
2021/12/12 02:39:27;;;;;;;24.48;13.30;;;;;;;3.09;100.00;101468.22;5015597;28;20053;-75
2021/12/12 02:41:58;;;;;;;24.38;13.20;;;;;;;3.21;100.00;101482.47;5031192;28;20033;-75
2021/12/12 02:44:29;;;;;;;30.15;13.93;;;;;;;3.30;100.00;101476.81;5031552;28;20039;-76
2021/12/12 02:46:58;;;;;;;26.08;12.70;;;;;;;3.22;100.00;101471.94;5030094;28;20013;-76
2021/12/12 02:49:39;;;;;;;28.45;13.93;;;;;;;3.27;100.00;101471.72;5011975;28;20471;-75
2021/12/12 02:52:09;;;;;;;28.00;13.80;;;;;;;3.05;100.00;101432.72;5029967;28;20079;-74
2021/12/12 02:54:42;;;;;;;28.42;14.43;;;;;;;3.03;100.00;101435.41;4997916;28;20422;-74
2021/12/12 02:57:10;;;;;;;27.10;14.32;;;;;;;3.14;100.00;101432.31;5013401;28;20037;-75
2021/12/12 02:59:38;;;;;;;33.20;14.57;;;;;;;3.34;100.00;101447.06;4999664;28;20204;-75
2021/12/12 03:02:10;;;;;;;25.65;14.25;;;;;;;3.41;100.00;101471.97;4999820;28;20179;-76
2021/12/12 03:04:36;;;;;;;32.65;14.80;;;;;;;3.24;100.00;101477.09;5003144;28;20025;-75
2021/12/12 03:07:06;;;;;;;29.15;15.80;;;;;;;3.20;100.00;101457.25;5033054;28;20032;-75
2021/12/12 03:09:38;;;;;;;28.75;15.02;;;;;;;3.34;100.00;101463.56;5029342;28;20052;-75
2021/12/12 03:12:09;;;;;;;29.75;14.82;;;;;;;3.08;100.00;101438.63;4996774;28;20545;-75
2021/12/12 03:14:36;;;;;;;29.55;15.90;;;;;;;3.37;100.00;101452.13;5028144;28;20037;-76
2021/12/12 03:17:13;;;;;;;29.50;15.10;;;;;;;3.07;100.00;101425.69;5012508;28;20025;-75
2021/12/12 03:19:42;;;;;;;32.92;15.20;;;;;;;3.30;100.00;101469.84;4996935;28;20030;-75
2021/12/12 03:22:09;;;;;;;32.42;17.25;;;;;;;3.25;100.00;101450.09;5012403;28;20033;-74
2021/12/12 03:24:36;;;;;;;30.25;16.05;;;;;;;3.18;100.00;101443.44;5013756;28;20604;-76
2021/12/12 03:27:05;;;;;;;34.70;17.13;;;;;;;3.23;100.00;101431.03;4998589;28;20017;-75
2021/12/12 03:29:31;;;;;;;33.78;15.98;;;;;;;3.42;100.00;101457.97;5012962;28;20136;-75
2021/12/12 03:32:03;;;;;;;31.95;16.13;;;;;;;3.34;100.00;101452.28;5013435;28;20033;-75
2021/12/12 03:34:34;;;;;;;32.90;17.05;;;;;;;3.19;100.00;101437.31;4995376;28;20188;-74
2021/12/12 03:37:01;;;;;;;32.22;16.67;;;;;;;3.41;100.00;101451.06;5029091;28;20136;-75
2021/12/12 03:39:33;;;;;;;39.22;18.52;;;;;;;3.11;100.00;101419.38;5011714;28;20045;-74
2021/12/12 03:42:05;;;;;;;36.22;17.20;;;;;;;3.12;100.00;101432.38;4994204;28;20030;-75
2021/12/12 03:44:33;;;;;;;33.95;18.42;;;;;;;3.42;100.00;101476.25;5011086;28;20029;-76
2021/12/12 03:47:08;;;;;;;36.65;18.10;;;;;;;3.38;100.00;101459.03;4994407;28;20023;-75
2021/12/12 03:49:34;;;;;;;;;;;;;;;3.52;100.00;101464.47;5010701;28;20087;-75
2021/12/12 03:52:01;;;;;;;37.47;17.70;;;;;;;3.40;100.00;101467.63;5028691;28;19979;-76
2021/12/12 03:54:27;;;;;;;38.00;18.38;;;;;;;3.50;100.00;101455.03;5010363;28;20037;-75
2021/12/12 03:56:53;;;;;;;36.42;18.20;;;;;;;3.47;100.00;101449.91;4999306;28;20093;-75
2021/12/12 03:59:23;;;;;;;38.05;18.63;;;;;;;3.44;100.00;101448.31;4972726;28;20022;-75
2021/12/12 04:01:51;;;;;;;40.22;19.02;;;;;;;3.12;100.00;101403.66;4973636;28;20041;-75
2021/12/12 04:04:38;;;;;;;38.75;19.02;;;;;;;3.41;100.00;101440.63;4975813;28;20032;-75
2021/12/12 04:07:11;;;;;;;43.35;21.08;;;;;;;3.50;100.00;101460.25;4993520;28;20049;-75
2021/12/12 04:09:37;;;;;;;38.40;20.85;;;;;;;3.53;100.00;101463.53;4976338;28;20125;-75
2021/12/12 04:12:07;;;;;;;38.15;19.88;;;;;;;3.53;100.00;101452.25;4977794;28;20062;-74
2021/12/12 04:14:36;;;;;;;41.08;19.95;;;;;;;3.52;100.00;101448.81;4993618;28;20030;-75
2021/12/12 04:17:11;;;;;;;40.92;20.75;;;;;;;3.62;100.00;101448.38;4977886;28;20022;-75
2021/12/12 04:19:37;;;;;;;40.05;20.23;;;;;;;3.46;100.00;101443.03;4977836;28;20488;-75
2021/12/12 04:22:04;;;;;;;38.90;19.95;;;;;;;3.42;100.00;101421.41;4976963;28;20034;-75
2021/12/12 04:24:34;;;;;;;44.33;20.55;;;;;;;3.37;100.00;101415.56;4995399;28;20053;-75
2021/12/12 04:27:01;;;;;;;45.00;21.92;;;;;;;3.22;100.00;101411.06;5011057;28;20054;-75
2021/12/12 04:29:40;;;;;;;44.70;19.70;;;;;;;3.55;100.00;101446.03;4978724;28;20115;-75
2021/12/12 04:32:15;;;;;;;43.55;21.85;;;;;;;3.45;100.00;101426.50;4975821;28;20030;-74
2021/12/12 04:34:50;;;;;;;48.67;21.25;;;;;;;3.60;100.00;101439.75;4991985;28;20089;-74
2021/12/12 04:37:16;;;;;;;48.72;23.05;;;;;;;3.69;100.00;101445.38;4995281;28;20044;-75
2021/12/12 04:39:47;;;;;;;50.88;24.02;;;;;;;3.30;100.00;101404.56;4994356;28;20105;-75
2021/12/12 04:42:24;;;;;;;52.80;23.90;;;;;;;3.55;100.00;101450.41;4993124;28;20117;-75
2021/12/12 04:44:52;;;;;;;59.40;25.52;;;;;;;3.24;100.00;101399.63;4975534;28;20169;-75
2021/12/12 04:50:12;;;;;;;66.03;25.93;;;;;;;3.57;100.00;101443.38;4992766;28;20043;-76
2021/12/12 04:52:44;;;;;;;59.70;26.02;;;;;;;3.74;100.00;101466.06;5009017;28;20272;-76
2021/12/12 04:55:20;;;;;;;57.83;25.63;;;;;;;3.56;100.00;101431.19;4975585;28;20108;-75
2021/12/12 04:58:09;;;;;;;70.00;28.52;;;;;;;3.47;100.00;101424.66;5009786;28;20030;-75
2021/12/12 05:00:45;;;;;;;63.88;27.25;;;;;;;3.57;100.00;101429.47;4958713;28;20041;-76
2021/12/12 05:03:17;;;;;;;66.15;27.35;;;;;;;3.81;100.00;101475.28;5008372;28;20019;-76
2021/12/12 05:06:19;;;;;;;78.63;27.35;;;;;;;3.89;100.00;101464.47;4993452;28;20038;-75
2021/12/12 05:09:04;;;;;;;63.28;27.30;;;;;;;3.91;100.00;101478.31;5011485;28;20060;-76
2021/12/12 05:11:56;;;;;;;63.35;27.42;;;;;;;3.90;100.00;101461.78;4994715;28;20077;-75
2021/12/12 05:14:27;;;;;;;70.20;27.98;;;;;;;3.74;100.00;101437.31;4995558;28;20045;-75
2021/12/12 05:17:13;;;;;;;67.68;27.17;;;;;;;4.01;100.00;101468.25;4996847;28;20104;-73
2021/12/12 05:19:45;;;;;;;71.18;28.33;;;;;;;3.89;100.00;101439.19;4980069;28;20033;-75
2021/12/12 05:22:14;;;;;;;69.95;26.55;;;;;;;3.97;100.00;101452.75;5013904;28;20500;-73
2021/12/12 05:24:41;;;;;;;66.20;26.80;;;;;;;4.01;100.00;101460.44;5013866;28;20360;-74
2021/12/12 05:27:13;;;;;;;63.97;25.80;;;;;;;4.14;100.00;101464.97;5014397;28;20095;-73
2021/12/12 05:29:44;;;;;;;62.30;26.23;;;;;;;4.06;100.00;101455.81;4979999;28;20079;-73
2021/12/12 05:32:12;;;;;;;74.65;28.25;;;;;;;3.98;100.00;101445.75;4980575;28;20112;-73
2021/12/12 05:34:41;;;;;;;74.82;29.05;;;;;;;4.04;100.00;101442.81;4997319;28;20028;-74
2021/12/12 05:37:10;;;;;;;79.55;29.52;;;;;;;4.21;100.00;101475.13;5014896;28;20108;-74
2021/12/12 05:39:37;;;;;;;76.93;27.83;;;;;;;4.18;100.00;101457.84;4980778;28;20432;-74
2021/12/12 05:42:04;;;;;;;79.15;29.38;;;;;;;4.04;100.00;101436.75;5013708;28;20032;-74
2021/12/12 05:44:31;;;;;;;85.18;29.60;;;;;;;4.18;100.00;101460.44;5015439;28;20030;-74
2021/12/12 05:47:00;;;;;;;83.93;29.05;;;;;;;4.14;100.00;101448.44;5018476;28;20352;-73
2021/12/12 05:49:26;;;;;;;76.40;29.13;;;;;;;4.05;100.00;101428.00;5018982;28;20094;-73
2021/12/12 05:51:55;;;;;;;87.30;29.25;;;;;;;4.32;100.00;101480.69;4987495;28;20054;-75
2021/12/12 05:54:24;;;;;;;90.15;30.35;;;;;;;4.15;100.00;101447.50;5033465;28;20026;-74
2021/12/12 05:56:50;;;;;;;90.90;30.63;;;;;;;4.16;100.00;101444.84;4998415;28;20081;-74
2021/12/12 05:59:16;;;;;;;90.43;30.15;;;;;;;4.00;100.00;101432.59;5013933;28;20356;-75
2021/12/12 06:01:44;;;;;;;93.80;31.55;;;;;;;4.05;100.00;101447.13;4992103;28;20377;-74
2021/12/12 06:04:12;;;;;;;91.05;31.10;;;;;;;4.13;100.00;101452.84;4996407;28;20026;-75
2021/12/12 06:06:42;;;;;;;94.75;30.95;;;;;;;4.43;100.00;101494.06;4977858;28;20038;-74
2021/12/12 06:09:11;;;;;;;92.38;30.70;;;;;;;4.43;100.00;101501.91;4999626;28;20057;-74
2021/12/12 06:11:39;;;;;;;89.00;29.95;;;;;;;4.38;100.00;101482.97;4995041;28;20053;-74
2021/12/12 06:14:07;;;;;;;80.15;30.88;;;;;;;4.54;100.00;101510.06;4995058;28;20333;-74
2021/12/12 06:16:34;;;;;;;88.18;31.23;;;;;;;4.37;100.00;101486.50;4994054;28;20049;-73
2021/12/12 06:19:07;;;;;;;85.32;30.45;;;;;;;4.18;100.00;101452.59;4976733;28;20038;-74
2021/12/12 06:21:34;;;;;;;87.45;29.85;;;;;;;4.21;100.00;101451.59;4976487;28;20022;-74
2021/12/12 06:24:00;;;;;;;103.70;32.67;;;;;;;4.56;100.00;101512.59;4992089;28;20026;-73
2021/12/12 06:26:26;;;;;;;95.25;29.02;;;;;;;4.58;100.00;101500.28;4992633;28;20041;-74
2021/12/12 06:28:56;;;;;;;95.63;32.33;;;;;;;4.53;100.00;101484.81;4993582;28;20440;-73
2021/12/12 06:31:24;;;;;;;90.88;30.67;;;;;;;4.62;100.00;101509.66;4976872;28;20037;-72
2021/12/12 06:33:55;;;;;;;87.38;29.33;;;;;;;4.71;100.00;101521.44;4992347;28;20495;-73
2021/12/12 06:36:24;;;;;;;79.78;29.52;;;;;;;4.71;100.00;101522.28;4992444;28;20469;-75
2021/12/12 06:38:53;;;;;;;96.80;32.08;;;;;;;4.69;100.00;101504.97;4976779;28;20372;-74
2021/12/12 06:41:20;;;;;;;81.80;30.30;;;;;;;4.73;100.00;101512.59;4976875;28;20077;-74
2021/12/12 06:43:50;;;;;;;99.53;30.85;;;;;;;4.72;100.00;101504.81;4995320;28;20088;-74
2021/12/12 06:46:17;;;;;;;102.95;31.42;;;;;;;4.51;100.00;101475.34;4979566;28;20026;-74
2021/12/12 06:48:43;;;;;;;102.60;30.98;;;;;;;4.76;100.00;101515.03;4996401;28;20441;-74
2021/12/12 06:51:10;;;;;;;100.95;31.77;;;;;;;4.76;100.00;101507.19;4996876;28;20030;-74
2021/12/12 06:57:18;;;;;;;101.63;31.48;;;;;;;4.78;100.00;101512.34;4997695;28;20044;-75
2021/12/12 06:59:50;;;;;;;101.57;32.33;;;;;;;4.90;100.00;101524.78;4978121;28;20461;-75
2021/12/12 07:02:25;;;;;;;103.35;32.15;;;;;;;4.84;100.00;101516.41;5015374;28;20050;-78
2021/12/12 07:04:51;;;;;;;111.35;31.73;;;;;;;4.82;100.00;101509.50;4996358;28;20042;-76
2021/12/12 07:07:17;;;;;;;106.32;34.08;;;;;;;4.66;100.00;101489.44;4996276;28;20002;-76
2021/12/12 07:09:46;;;;;;;102.68;32.17;;;;;;;4.92;100.00;101515.09;4989492;28;20088;-76
2021/12/12 07:12:16;;;;;;;108.78;31.90;;;;;;;4.74;100.00;101492.50;4983103;28;20042;-78
2021/12/12 07:14:42;;;;;;;99.95;30.98;;;;;;;4.66;100.00;101478.97;4997037;28;20033;-76
2021/12/12 07:17:09;;;;;;;99.57;31.15;;;;;;;5.05;100.00;101528.41;5009590;28;20388;-73
2021/12/12 07:19:37;;;;;;;99.25;30.15;;;;;;;4.86;100.00;101506.72;4992921;28;20022;-73
2021/12/12 07:22:07;;;;;;;94.60;30.40;;;;;;;4.79;100.00;101493.97;4975733;28;20497;-74
2021/12/12 07:24:33;;;;;;;106.35;31.02;;;;;;;4.99;100.00;101524.31;4995458;28;20105;-75
2021/12/12 07:27:00;;;;;;;94.57;29.15;;;;;;;5.07;100.00;101534.41;4991606;28;20018;-75
2021/12/12 07:29:27;;;;;;;104.43;30.08;;;;;;;5.05;100.00;101538.03;4975940;28;20513;-75
2021/12/12 07:31:53;;;;;;;94.30;30.13;;;;;;;5.06;100.00;101524.84;4992579;28;20026;-75
2021/12/12 07:34:19;;;;;;;94.88;29.67;;;;;;;5.10;100.00;101542.09;4992857;28;20023;-74
2021/12/12 07:36:56;;;;;;;93.50;29.48;;;;;;;4.95;100.00;101490.53;4992884;28;20031;-75
2021/12/12 07:39:23;;;;;;;83.40;29.13;;;;;;;5.24;100.00;101557.06;4995488;28;20027;-76
2021/12/12 07:41:50;;;;;;;80.25;26.17;;;;;;;5.28;100.00;101563.84;4976719;28;20037;-75
2021/12/12 07:44:18;;;;;;;83.10;28.73;;;;;;;4.94;100.00;101528.94;4977909;28;20027;-77
2021/12/12 07:46:47;;;;;;;99.88;30.08;;;;;;;5.12;100.00;101537.63;4994881;28;20034;-76
2021/12/12 07:49:15;;;;;;;84.57;26.00;;;;;;;5.02;100.00;101505.00;4976442;28;20388;-74
2021/12/12 07:51:42;;;;;;;92.10;28.70;;;;;;;5.30;100.00;101550.69;4993168;28;20034;-78
2021/12/12 07:54:09;;;;;;;86.32;27.80;;;;;;;5.06;100.00;101516.16;4977794;28;20035;-75
2021/12/12 07:56:41;;;;;;;82.13;26.25;;;;;;;5.34;100.00;101571.38;4993651;28;20468;-78
2021/12/12 07:59:08;;;;;;;109.75;39.20;;;;;;;5.01;100.00;101524.25;5007788;23;20026;-79
2021/12/12 08:01:36;;;;;;;77.38;26.33;;;;;;;5.22;100.00;101557.16;5013580;28;20038;-74
2021/12/12 08:04:05;;;;;;;78.40;26.67;;;;;;;5.16;100.00;101548.78;4981624;28;20056;-75
2021/12/12 08:06:31;;;;;;;65.68;24.27;;;;;;;5.17;100.00;101559.16;4998679;28;20026;-75
2021/12/12 08:08:58;;;;;;;67.88;25.58;;;;;;;5.20;100.00;101566.88;4995605;28;20483;-74
2021/12/12 08:11:27;;;;;;;64.60;24.90;;;;;;;5.39;100.00;101599.97;4999741;28;20087;-80
2021/12/12 08:13:58;;;;;;;70.35;24.40;;;;;;;5.28;100.00;101574.31;4981928;28;20033;-76
2021/12/12 08:16:24;;;;;;;90.13;36.00;;;;;;;5.28;100.00;101556.00;5013735;28;20065;-74
2021/12/12 08:18:51;;;;;;;64.68;23.08;;;;;;;5.34;100.00;101567.94;5014045;28;20025;-72
2021/12/12 08:21:21;;;;;;;72.03;25.65;;;;;;;5.20;100.00;101548.56;5012377;28;20022;-76
2021/12/12 08:23:47;;;;;;;66.07;24.85;;;;;;;5.47;100.00;101581.19;5012979;28;20022;-76
2021/12/12 08:26:13;;;;;;;52.38;20.27;;;;;;;5.59;100.00;101609.41;5001974;28;20425;-74
2021/12/12 08:28:40;;;;;;;57.95;22.05;;;;;;;5.51;100.00;101596.69;5012644;28;20484;-74
2021/12/12 08:31:06;;;;;;;52.35;21.13;;;;;;;5.68;100.00;101619.38;5014962;28;20118;-73
2021/12/12 08:33:32;;;;;;;49.22;20.67;;;;;;;5.66;100.00;101616.00;5012548;28;20041;-72
2021/12/12 08:35:59;;;;;;;51.13;20.23;;;;;;;5.51;100.00;101595.84;4979654;28;20038;-72
2021/12/12 08:38:26;;;;;;;45.35;18.48;;;;;;;5.45;100.00;101586.53;5015001;28;20032;-72
2021/12/12 08:40:55;;;;;;;49.33;18.67;;;;;;;5.44;100.00;101597.94;4994859;28;20026;-75
2021/12/12 08:43:26;;;;;;;46.10;19.17;;;;;;;5.55;100.00;101602.63;4978501;28;20113;-73
2021/12/12 08:46:00;;;;;;;47.33;19.70;;;;;;;5.63;100.00;101624.00;5010567;28;20125;-74
2021/12/12 08:48:31;;;;;;;46.42;18.33;;;;;;;5.68;100.00;101623.75;5011349;28;20025;-73
2021/12/12 08:51:05;;;;;;;39.17;17.88;;;;;;;5.71;100.00;101637.56;4996523;28;20089;-74
2021/12/12 08:53:32;;;;;;;42.75;18.02;;;;;;;5.67;100.00;101635.19;4995836;28;20113;-73
2021/12/12 08:55:58;;;;;;;43.75;19.35;;;;;;;5.74;100.00;101642.63;4996984;28;20034;-72
2021/12/12 08:58:31;;;;;;;47.15;19.65;;;;;;;5.74;100.00;101620.81;5016094;28;20048;-73
2021/12/12 09:01:05;;;;;;;45.28;19.30;;;;;;;5.69;100.00;101639.41;5011283;28;20038;-73
2021/12/12 09:03:49;;;;;;;44.75;18.27;;;;;;;5.82;100.00;101647.47;4997306;28;20091;-77
2021/12/12 09:06:16;;;;;;;41.75;17.25;;;;;;;5.65;100.00;101636.13;5018684;28;20033;-74
2021/12/12 09:09:00;;;;;;;40.25;17.17;;;;;;;5.81;100.00;101641.38;4998559;28;20022;-74
2021/12/12 09:11:40;;;;;;;45.20;18.30;;;;;;;5.72;100.00;101620.88;5013312;28;20021;-73
2021/12/12 09:14:24;;;;;;;43.72;18.65;;;;;;;5.92;100.00;101653.91;4981093;28;20038;-73
2021/12/12 09:17:00;;;;;;;37.72;15.82;;;;;;;5.86;100.00;101651.63;4980487;28;20591;-72
2021/12/12 09:19:37;;;;;;;40.60;17.92;;;;;;;5.98;100.00;101650.16;4998269;28;20033;-72
2021/12/12 09:22:14;;;;;;;37.90;16.98;;;;;;;5.88;100.00;101643.66;4996702;28;20070;-72
2021/12/12 09:25:15;;;;;;;45.58;18.95;;;;;;;6.02;100.00;101663.00;5011481;28;20132;-73
2021/12/12 09:28:02;;;;;;;43.92;18.02;;;;;;;5.84;100.00;101635.13;4998950;28;20546;-72
2021/12/12 09:30:28;;;;;;;43.88;18.85;;;;;;;5.97;100.00;101659.78;5013491;28;20461;-71
2021/12/12 09:33:19;;;;;;;42.05;17.95;;;;;;;6.04;100.00;101665.53;5015892;28;20036;-74
2021/12/12 09:35:58;;;;;;;35.20;16.02;;;;;;;5.96;100.00;101644.13;4996101;28;20052;-74
2021/12/12 09:38:30;;;;;;;34.78;15.82;;;;;;;6.13;100.00;101688.66;4995972;28;20128;-74
2021/12/12 09:41:11;;;;;;;39.97;16.48;;;;;;;6.14;100.00;101673.75;4980821;28;20045;-73
2021/12/12 09:46:57;;;;;;;35.83;15.57;;;;;;;6.07;100.00;101647.88;5164915;22;20454;-74
2021/12/12 09:53:02;;;;;;;32.10;15.55;;;;;;;6.33;100.00;101674.44;5035993;28;20099;-76
2021/12/12 09:55:44;;;;;;;35.45;15.13;;;;;;;6.25;100.00;101647.78;4954972;28;20039;-75
2021/12/12 09:58:22;;;;;;;32.63;13.75;;;;;;;6.27;100.00;101661.69;4937952;29;20477;-74
2021/12/12 10:01:06;;;;;;;35.35;15.35;;;;;;;6.39;100.00;101678.50;4942760;29;20418;-74
2021/12/12 10:03:47;;;;;;;28.95;14.00;;;;;;;6.13;100.00;101619.59;4940394;28;20146;-76
2021/12/12 10:06:34;;;;;;;33.67;15.10;;;;;;;6.44;100.00;101669.44;5049868;23;20057;-74
2021/12/12 10:09:16;;;;;;;32.40;14.43;;;;;;;6.52;100.00;101671.66;5046414;28;20049;-73
2021/12/12 10:11:59;;;;;;;26.83;13.32;;;;;;;6.52;100.00;101673.41;5047897;28;20029;-74
2021/12/12 10:14:58;;;;;;;27.55;13.68;;;;;;;6.57;100.00;101677.47;5041429;28;20025;-75
2021/12/12 10:17:48;;;;;;;31.95;14.57;;;;;;;6.51;100.00;101676.97;5057259;28;20497;-77
2021/12/12 10:20:28;;;;;;;29.15;12.70;;;;;;;6.40;100.00;101660.03;5023844;28;20033;-79
2021/12/12 10:23:27;;;;;;;30.15;15.30;;;;;;;6.57;100.00;101684.50;5041585;28;20088;-78
2021/12/12 10:26:36;;;;;;;26.20;11.45;;;;;;;6.38;100.00;101651.44;5038989;28;20032;-79
2021/12/12 10:29:16;;;;;;;25.83;12.98;;;;;;;6.69;100.00;101684.66;4988112;28;20030;-75
2021/12/12 10:32:18;;;;;;;21.45;10.70;;;;;;;6.73;100.00;101666.97;4978125;28;20042;-77
2021/12/12 10:34:50;;;;;;;21.33;10.55;;;;;;;6.72;100.00;101682.78;4932224;29;20044;-74
2021/12/12 10:37:27;;;;;;;24.73;11.18;;;;;;;6.71;100.00;101660.13;4931128;29;20042;-76
2021/12/12 10:40:20;;;;;;;21.05;10.65;;;;;;;6.59;100.00;101649.38;4902091;29;20043;-74
2021/12/12 10:42:57;;;;;;;20.75;10.70;;;;;;;6.71;100.00;101676.69;4931190;29;20042;-75
2021/12/12 10:45:33;;;;;;;20.90;10.10;;;;;;;6.63;100.00;101658.78;4933243;29;20437;-74
2021/12/12 10:48:13;;;;;;;22.70;11.77;;;;;;;6.86;100.00;101667.97;4917439;29;20474;-75
2021/12/12 10:50:58;;;;;;;20.90;10.73;;;;;;;6.79;100.00;101669.25;4935819;29;20181;-74
2021/12/12 10:53:34;;;;;;;30.15;12.77;;;;;;;6.95;100.00;101673.59;4919287;29;20039;-75
2021/12/12 10:56:31;;;;;;;22.23;11.50;;;;;;;7.03;100.00;101684.50;4927885;29;20423;-76
2021/12/12 10:59:01;;;;;;;91.50;39.70;;;;;;;6.96;100.00;101663.00;4913998;29;20122;-75
2021/12/12 11:01:29;;;;;;;21.27;10.80;;;;;;;7.04;100.00;101678.31;4934970;29;20368;-77
2021/12/12 11:04:17;;;;;;;21.92;10.55;;;;;;;7.04;100.00;101678.31;4920808;29;20052;-76
2021/12/12 11:06:56;;;;;;;23.95;11.27;;;;;;;6.96;100.00;101665.63;4960565;28;20066;-76
2021/12/12 11:10:05;;;;;;;20.73;10.23;;;;;;;7.22;100.00;101697.41;4974789;28;20084;-75
2021/12/12 11:12:36;;;;;;;22.73;10.65;;;;;;;7.21;100.00;101699.19;4967242;28;20042;-76
2021/12/12 11:15:26;;;;;;;18.52;9.02;;;;;;;7.26;100.00;101699.75;4937844;28;20041;-76
2021/12/12 11:18:02;;;;;;;20.67;9.98;;;;;;;7.30;100.00;101695.19;4969835;28;20034;-75
2021/12/12 11:20:35;;;;;;;20.70;9.27;;;;;;;7.29;100.00;101683.00;4953057;28;20040;-74
2021/12/12 11:23:17;;;;;;;19.65;9.75;;;;;;;7.40;100.00;101703.38;4978729;28;20108;-76
2021/12/12 11:25:49;;;;;;;19.00;9.45;;;;;;;7.46;100.00;101697.75;4950734;28;20054;-75
2021/12/12 11:28:20;;;;;;;24.25;11.25;;;;;;;7.49;100.00;101701.06;4971729;28;20065;-75
2021/12/12 11:30:51;;;;;;;21.10;8.38;;;;;;;7.56;100.00;101695.41;4954396;28;20328;-75
2021/12/12 11:33:20;;;;;;;21.30;8.50;;;;;;;7.62;100.00;101701.16;4971639;28;20046;-74
2021/12/12 11:35:50;;;;;;;13.50;6.80;;;;;;;7.68;100.00;101713.94;4954765;28;20102;-75
2021/12/12 11:38:37;;;;;;;22.75;9.57;;;;;;;7.68;100.00;101706.06;4968157;28;20023;-74
2021/12/12 11:41:12;;;;;;;15.70;7.13;;;;;;;7.77;100.00;101711.66;4940450;28;20481;-75
2021/12/12 11:44:10;;;;;;;17.95;6.53;;;;;;;7.74;100.00;101705.69;4957740;28;20481;-75
2021/12/12 11:46:47;;;;;;;17.60;7.32;;;;;;;7.45;100.00;101654.03;4935196;29;20426;-74
2021/12/12 11:49:25;;;;;;;16.25;6.13;;;;;;;7.65;100.00;101690.47;4914037;28;20039;-74
2021/12/12 11:51:58;;;;;;;17.15;6.82;;;;;;;7.46;100.00;101663.59;4975746;28;20023;-73
2021/12/12 11:54:36;;;;;;;16.73;5.93;;;;;;;7.72;100.00;101715.44;4965554;28;20691;-74
2021/12/12 11:57:10;;;;;;;16.73;6.82;;;;;;;7.69;100.00;101701.63;4963787;28;20050;-77
2021/12/12 11:59:55;;;;;;;;;;;;;;;7.73;100.00;101724.19;4950111;28;20055;-73
2021/12/12 12:02:33;;;;;;;25.90;8.65;;;;;;;7.69;100.00;101720.88;4947504;28;20009;-74